createdAt,value
2023-03-23T15:59:53.932Z,100067.22
2023-03-23T16:04:58.213Z,100049.78
2023-03-23T16:10:01.140Z,100072.88
2023-03-23T16:15:04.164Z,100064.06
2023-03-23T16:20:19.555Z,100066.84
2023-03-23T16:25:22.582Z,100073.13
2023-03-23T16:30:27.117Z,100084.88
2023-03-23T16:35:31.643Z,100084.16
2023-03-23T16:40:34.896Z,100078.16
2023-03-23T16:45:38.341Z,100079.56
2023-03-23T16:50:43.330Z,100078.38
2023-03-23T16:55:48.443Z,100061.84
2023-03-23T17:00:53.542Z,100062.63
2023-03-23T17:05:57.652Z,100070.63
2023-03-23T17:11:00.740Z,100078.66
2023-03-23T17:16:03.721Z,100075.19
2023-03-23T17:21:08.535Z,100064.03
2023-03-23T17:26:11.497Z,100056.28
2023-03-23T17:31:14.339Z,100045.88
2023-03-23T17:36:18.653Z,100049.25
2023-03-23T17:41:21.745Z,100044.50
2023-03-23T17:46:24.862Z,100042.41
2023-03-23T17:51:29.193Z,100031.84
2023-03-23T17:56:31.989Z,100046.06
2023-03-23T18:01:34.885Z,100037.91
2023-03-23T18:06:39.200Z,100032.06
2023-03-23T18:11:42.065Z,100022.19
2023-03-23T18:16:44.989Z,100018.22
2023-03-23T18:21:49.265Z,100012.84
2023-03-23T18:26:52.061Z,100009.78
2023-03-23T18:31:54.964Z,100013.00
2023-03-23T18:36:59.218Z,100007.34
2023-03-23T18:42:02.339Z,100003.44
2023-03-23T18:47:05.568Z,99992.56
2023-03-23T18:52:09.752Z,100008.38
2023-03-23T18:57:12.693Z,99989.66
2023-03-23T19:02:18.298Z,99999.78
2023-03-23T19:07:22.560Z,99979.91
2023-03-23T19:12:25.396Z,99968.97
2023-03-23T19:17:28.280Z,99964.66
2023-03-23T19:22:32.819Z,99943.59
2023-03-23T19:32:41.166Z,99935.69
2023-03-23T19:37:46.367Z,99911.78
2023-03-23T19:42:49.202Z,99901.66
2023-03-23T19:47:52.221Z,99895.03
2023-03-23T19:52:58.390Z,99881.34
2023-03-23T19:58:03.113Z,99865.88
2023-03-23T20:03:06.307Z,99864.16
2023-03-23T20:08:11.122Z,99851.84
2023-03-23T20:13:14.073Z,99841.59
2023-03-23T20:18:18.794Z,99820.50
2023-03-23T20:23:23.106Z,99803.13
2023-03-23T20:28:25.999Z,99789.03
2023-03-23T20:33:30.526Z,99772.31
2023-03-23T20:38:35.592Z,99752.94
2023-03-23T20:43:39.232Z,99768.16
2023-03-23T20:48:42.747Z,99778.50
2023-03-23T20:53:48.434Z,99752.38
2023-03-23T20:58:51.225Z,99740.44
2023-03-23T21:03:54.390Z,99736.94
2023-03-23T21:08:59.304Z,99724.78
2023-03-23T21:14:02.470Z,99707.47
2023-03-23T21:19:06.176Z,99711.19
2023-03-23T21:24:11.978Z,99698.44
2023-03-23T21:29:15.417Z,99696.06
2023-03-23T21:34:18.390Z,99676.56
2023-03-23T21:39:22.604Z,99675.56
2023-03-23T21:44:25.512Z,99660.88
2023-03-23T21:49:28.863Z,99676.34
2023-03-23T21:54:34.323Z,99674.94
2023-03-23T21:59:37.173Z,99668.53
2023-03-23T22:04:40.002Z,99659.22
2023-03-23T22:09:44.891Z,99659.78
2023-03-23T22:14:47.895Z,99650.84
2023-03-23T22:19:51.240Z,99637.59
2023-03-23T22:24:55.471Z,99623.53
2023-03-23T22:29:58.351Z,99610.28
2023-03-23T22:35:01.263Z,99610.66
2023-03-23T22:40:07.149Z,99593.66
2023-03-23T22:45:10.437Z,99586.97
2023-03-23T22:50:13.401Z,99567.09
2023-03-23T22:55:17.932Z,99546.09
2023-03-23T23:00:20.896Z,99549.22
2023-03-23T23:05:23.745Z,99548.31
2023-03-23T23:10:28.015Z,99540.56
2023-03-23T23:15:30.924Z,99530.53
2023-03-23T23:20:34.420Z,99528.16
2023-03-23T23:25:39.513Z,99524.09
2023-03-23T23:30:42.370Z,99503.75
2023-03-23T23:35:45.549Z,99487.59
2023-03-23T23:40:49.998Z,99480.69
2023-03-23T23:45:52.846Z,99466.41
2023-03-23T23:50:55.705Z,99464.22
2023-03-23T23:56:03.696Z,99449.31
